CMP737 MPTO-SKBG
Flight info
| Callsign | CMP737 |
|---|---|
| Flight time | 1h 4m |
| Altitude | 37000 |
| Route | REMAL DCT KUBEK UP790 EJA EJA1H |
| Aircraft | B738/M-SDE2E3FGHIRWXY/LB1 |
Departure
| Time | 2026-05-07 16:58 |
|---|---|
| Airport | Tocumen International Airport (MPTO) |
Arrival
| Time | 2026-05-07 18:03 |
|---|---|
| Airport | Palonegro Airport (SKBG) |
| Time | Latitude | Longitude | Altitude | Speed | Heading |
|---|---|---|---|---|---|
| 2026-05-07 16:46 | 9.05218 | -79.39184 | 29 ft | 18 kts | 208° |
| 2026-05-07 16:46 | 9.05112 | -79.39246 | 29 ft | 17 kts | 210° |
| 2026-05-07 16:46 | 9.05008 | -79.39304 | 29 ft | 17 kts | 210° |
| 2026-05-07 16:47 | 9.04913 | -79.39359 | 29 ft | 0 kts | 210° |
| 2026-05-07 16:47 | 9.04903 | -79.39365 | 29 ft | 4 kts | 210° |
| 2026-05-07 16:47 | 9.04862 | -79.39379 | 29 ft | 9 kts | 181° |
| 2026-05-07 16:48 | 9.04814 | -79.39335 | 30 ft | 9 kts | 117° |
| 2026-05-07 16:48 | 9.04813 | -79.39333 | 30 ft | 0 kts | 117° |
| 2026-05-07 16:54 | 9.04805 | -79.39316 | 30 ft | 11 kts | 117° |
| 2026-05-07 16:54 | 9.04794 | -79.39247 | 30 ft | 9 kts | 66° |
| 2026-05-07 16:54 | 9.04842 | -79.39214 | 30 ft | 8 kts | 26° |
| 2026-05-07 16:54 | 9.04855 | -79.39207 | 30 ft | 0 kts | 27° |
| 2026-05-07 16:58 | 9.04982 | -79.39142 | 31 ft | 57 kts | 27° |
| 2026-05-07 16:58 | 9.05557 | -79.38811 | 30 ft | 131 kts | 28° |
| 2026-05-07 16:58 | 9.06514 | -79.38255 | 156 ft | 179 kts | 30° |
| 2026-05-07 16:58 | 9.07589 | -79.37611 | 1102 ft | 180 kts | 32° |
| 2026-05-07 16:59 | 9.08641 | -79.36869 | 1917 ft | 187 kts | 45° |
| 2026-05-07 16:59 | 9.09228 | -79.35617 | 2344 ft | 215 kts | 86° |
| 2026-05-07 16:59 | 9.08866 | -79.34047 | 2666 ft | 246 kts | 110° |
| 2026-05-07 16:59 | 9.08282 | -79.32390 | 3409 ft | 253 kts | 105° |
| 2026-05-07 17:00 | 9.07811 | -79.30673 | 4282 ft | 255 kts | 102° |
| 2026-05-07 17:00 | 9.07432 | -79.28924 | 5224 ft | 255 kts | 100° |
| 2026-05-07 17:00 | 9.07115 | -79.27143 | 6042 ft | 259 kts | 98° |
| 2026-05-07 17:00 | 9.06839 | -79.25334 | 6645 ft | 262 kts | 97° |
| 2026-05-07 17:01 | 9.06596 | -79.23519 | 6940 ft | 260 kts | 97° |
| 2026-05-07 17:01 | 9.06369 | -79.21678 | 6994 ft | 266 kts | 96° |
| 2026-05-07 17:01 | 9.06147 | -79.19816 | 6991 ft | 266 kts | 96° |
| 2026-05-07 17:01 | 9.05928 | -79.17967 | 6987 ft | 264 kts | 96° |
| 2026-05-07 17:02 | 9.05753 | -79.16123 | 6998 ft | 265 kts | 92° |
| 2026-05-07 17:02 | 9.05697 | -79.14215 | 7249 ft | 278 kts | 91° |
| 2026-05-07 17:02 | 9.05671 | -79.12289 | 8122 ft | 276 kts | 90° |
| 2026-05-07 17:02 | 9.05646 | -79.10340 | 8958 ft | 278 kts | 91° |
| 2026-05-07 17:03 | 9.05616 | -79.08346 | 9760 ft | 282 kts | 91° |
| 2026-05-07 17:03 | 9.05583 | -79.06383 | 10503 ft | 283 kts | 91° |
| 2026-05-07 17:03 | 9.05530 | -79.03451 | 11681 ft | 284 kts | 91° |
| 2026-05-07 17:03 | 9.05433 | -78.98591 | 13555 ft | 288 kts | 91° |
| 2026-05-07 17:04 | 9.05392 | -78.96556 | 14231 ft | 290 kts | 91° |
| 2026-05-07 17:04 | 9.05349 | -78.94500 | 14841 ft | 295 kts | 91° |
| 2026-05-07 17:04 | 9.05306 | -78.92411 | 15472 ft | 298 kts | 91° |
| 2026-05-07 17:04 | 9.05263 | -78.90293 | 16080 ft | 302 kts | 91° |
| 2026-05-07 17:05 | 9.05218 | -78.88160 | 16754 ft | 305 kts | 90° |
| 2026-05-07 17:05 | 9.05172 | -78.86003 | 17379 ft | 309 kts | 91° |
| 2026-05-07 17:05 | 9.05102 | -78.83815 | 17982 ft | 313 kts | 96° |
| 2026-05-07 17:05 | 9.04523 | -78.81668 | 18410 ft | 325 kts | 114° |
| 2026-05-07 17:06 | 9.03362 | -78.79617 | 18509 ft | 345 kts | 120° |
| 2026-05-07 17:06 | 9.02035 | -78.77520 | 18621 ft | 362 kts | 121° |
| 2026-05-07 17:06 | 9.00623 | -78.75346 | 18724 ft | 378 kts | 121° |
| 2026-05-07 17:06 | 8.99167 | -78.73112 | 18809 ft | 391 kts | 121° |
| 2026-05-07 17:07 | 8.97652 | -78.70775 | 18907 ft | 403 kts | 121° |
| 2026-05-07 17:07 | 8.96106 | -78.68374 | 19110 ft | 410 kts | 121° |
| 2026-05-07 17:07 | 8.94552 | -78.65947 | 19454 ft | 411 kts | 121° |
| 2026-05-07 17:07 | 8.92996 | -78.63510 | 19839 ft | 413 kts | 121° |
| 2026-05-07 17:08 | 8.91436 | -78.61058 | 20118 ft | 417 kts | 121° |
| 2026-05-07 17:08 | 8.89860 | -78.58578 | 20422 ft | 421 kts | 121° |
| 2026-05-07 17:08 | 8.88277 | -78.56085 | 20768 ft | 422 kts | 121° |
| 2026-05-07 17:08 | 8.86683 | -78.53575 | 21067 ft | 426 kts | 121° |
| 2026-05-07 17:09 | 8.85081 | -78.51052 | 21394 ft | 428 kts | 121° |
| 2026-05-07 17:09 | 8.83469 | -78.48512 | 21693 ft | 429 kts | 121° |
| 2026-05-07 17:09 | 8.81849 | -78.45964 | 21977 ft | 432 kts | 121° |
| 2026-05-07 17:09 | 8.80219 | -78.43398 | 22265 ft | 435 kts | 121° |
| 2026-05-07 17:10 | 8.78576 | -78.40813 | 22571 ft | 438 kts | 121° |
| 2026-05-07 17:10 | 8.76928 | -78.38221 | 22871 ft | 440 kts | 121° |
| 2026-05-07 17:10 | 8.75269 | -78.35610 | 23156 ft | 442 kts | 121° |
| 2026-05-07 17:10 | 8.73602 | -78.32990 | 23408 ft | 445 kts | 121° |
| 2026-05-07 17:11 | 8.71923 | -78.30349 | 23645 ft | 447 kts | 121° |
| 2026-05-07 17:11 | 8.70238 | -78.27703 | 23887 ft | 448 kts | 121° |
| 2026-05-07 17:11 | 8.68551 | -78.25050 | 24099 ft | 451 kts | 121° |
| 2026-05-07 17:11 | 8.66850 | -78.22378 | 24304 ft | 453 kts | 121° |
| 2026-05-07 17:12 | 8.65143 | -78.19698 | 24518 ft | 454 kts | 121° |
| 2026-05-07 17:12 | 8.63454 | -78.17045 | 24731 ft | 456 kts | 121° |
| 2026-05-07 17:12 | 8.61734 | -78.14344 | 24937 ft | 458 kts | 121° |
| 2026-05-07 17:12 | 8.59985 | -78.11598 | 25150 ft | 459 kts | 121° |
| 2026-05-07 17:13 | 8.58272 | -78.08908 | 25355 ft | 461 kts | 121° |
| 2026-05-07 17:13 | 8.56533 | -78.06181 | 25550 ft | 463 kts | 121° |
| 2026-05-07 17:13 | 8.54784 | -78.03436 | 25748 ft | 465 kts | 121° |
| 2026-05-07 17:13 | 8.53027 | -78.00680 | 25945 ft | 466 kts | 121° |
| 2026-05-07 17:14 | 8.51271 | -77.97925 | 26129 ft | 468 kts | 121° |
| 2026-05-07 17:14 | 8.49501 | -77.95150 | 26323 ft | 470 kts | 121° |
| 2026-05-07 17:14 | 8.47728 | -77.92371 | 26511 ft | 471 kts | 121° |
| 2026-05-07 17:14 | 8.45950 | -77.89584 | 26695 ft | 473 kts | 121° |
| 2026-05-07 17:15 | 8.44164 | -77.86785 | 26874 ft | 475 kts | 121° |
| 2026-05-07 17:15 | 8.42374 | -77.83980 | 27050 ft | 476 kts | 121° |
| 2026-05-07 17:15 | 8.40575 | -77.81162 | 27218 ft | 478 kts | 121° |
| 2026-05-07 17:15 | 8.38772 | -77.78338 | 27378 ft | 479 kts | 121° |
| 2026-05-07 17:16 | 8.36963 | -77.75506 | 27550 ft | 481 kts | 121° |
| 2026-05-07 17:16 | 8.35149 | -77.72666 | 27710 ft | 482 kts | 121° |
| 2026-05-07 17:16 | 8.33329 | -77.69817 | 27867 ft | 484 kts | 121° |
| 2026-05-07 17:16 | 8.31503 | -77.66961 | 28034 ft | 485 kts | 121° |
| 2026-05-07 17:17 | 8.29674 | -77.64098 | 28250 ft | 485 kts | 121° |
| 2026-05-07 17:17 | 8.27848 | -77.61243 | 28488 ft | 484 kts | 121° |
| 2026-05-07 17:17 | 8.26024 | -77.58390 | 28746 ft | 484 kts | 121° |
| 2026-05-07 17:17 | 8.24200 | -77.55538 | 28983 ft | 483 kts | 121° |
| 2026-05-07 17:18 | 8.22374 | -77.52683 | 29212 ft | 484 kts | 121° |
| 2026-05-07 17:18 | 8.20551 | -77.49833 | 29457 ft | 483 kts | 122° |
| 2026-05-07 17:18 | 8.18729 | -77.46986 | 29731 ft | 483 kts | 122° |
| 2026-05-07 17:18 | 8.16906 | -77.44138 | 29976 ft | 483 kts | 122° |
| 2026-05-07 17:19 | 8.15085 | -77.41293 | 30204 ft | 483 kts | 122° |
| 2026-05-07 17:19 | 8.13265 | -77.38451 | 30447 ft | 482 kts | 122° |
| 2026-05-07 17:19 | 8.11445 | -77.35608 | 30682 ft | 481 kts | 122° |
| 2026-05-07 17:19 | 8.09629 | -77.32773 | 30909 ft | 481 kts | 122° |
| 2026-05-07 17:20 | 8.07814 | -77.29939 | 31147 ft | 481 kts | 122° |
| 2026-05-07 17:20 | 8.06002 | -77.27110 | 31403 ft | 480 kts | 122° |
| 2026-05-07 17:20 | 8.04192 | -77.24284 | 31666 ft | 479 kts | 121° |
| 2026-05-07 17:20 | 8.02576 | -77.21350 | 31886 ft | 478 kts | 114° |
| 2026-05-07 17:21 | 8.01418 | -77.18218 | 32110 ft | 477 kts | 105° |
| 2026-05-07 17:21 | 8.00496 | -77.15010 | 32360 ft | 476 kts | 105° |
| 2026-05-07 17:21 | 7.99606 | -77.11791 | 32617 ft | 475 kts | 105° |
| 2026-05-07 17:21 | 7.98725 | -77.08581 | 32857 ft | 475 kts | 105° |
| 2026-05-07 17:22 | 7.97833 | -77.05366 | 33093 ft | 475 kts | 105° |
| 2026-05-07 17:22 | 7.96932 | -77.02163 | 33347 ft | 475 kts | 105° |
| 2026-05-07 17:22 | 7.96022 | -76.98962 | 33608 ft | 474 kts | 105° |
| 2026-05-07 17:22 | 7.95106 | -76.95769 | 33835 ft | 475 kts | 105° |
| 2026-05-07 17:23 | 7.94195 | -76.92609 | 34059 ft | 475 kts | 105° |
| 2026-05-07 17:23 | 7.93258 | -76.89365 | 34268 ft | 475 kts | 106° |
| 2026-05-07 17:23 | 7.92348 | -76.86215 | 34505 ft | 474 kts | 106° |
| 2026-05-07 17:23 | 7.91426 | -76.83024 | 34737 ft | 474 kts | 105° |
| 2026-05-07 17:24 | 7.90506 | -76.79840 | 34957 ft | 473 kts | 106° |
| 2026-05-07 17:24 | 7.89585 | -76.76654 | 35182 ft | 473 kts | 106° |
| 2026-05-07 17:24 | 7.88666 | -76.73473 | 35411 ft | 472 kts | 105° |
| 2026-05-07 17:24 | 7.87747 | -76.70294 | 35629 ft | 472 kts | 106° |
| 2026-05-07 17:25 | 7.86828 | -76.67117 | 35840 ft | 471 kts | 105° |
| 2026-05-07 17:25 | 7.85912 | -76.63946 | 36062 ft | 471 kts | 106° |
| 2026-05-07 17:25 | 7.84997 | -76.60782 | 36290 ft | 470 kts | 105° |
| 2026-05-07 17:25 | 7.83156 | -76.54421 | 36765 ft | 468 kts | 105° |
| 2026-05-07 17:26 | 7.81792 | -76.49710 | 36954 ft | 470 kts | 105° |
| 2026-05-07 17:26 | 7.80872 | -76.46533 | 36939 ft | 473 kts | 105° |
| 2026-05-07 17:26 | 7.79031 | -76.40179 | 36943 ft | 471 kts | 105° |
| 2026-05-07 17:27 | 7.77195 | -76.33846 | 36942 ft | 469 kts | 105° |
| 2026-05-07 17:27 | 7.75367 | -76.27545 | 36938 ft | 468 kts | 105° |
| 2026-05-07 17:28 | 7.73542 | -76.21260 | 36942 ft | 466 kts | 105° |
| 2026-05-07 17:28 | 7.71736 | -76.15039 | 36935 ft | 465 kts | 105° |
| 2026-05-07 17:29 | 7.69920 | -76.08792 | 36941 ft | 464 kts | 105° |
| 2026-05-07 17:29 | 7.68105 | -76.02551 | 36941 ft | 464 kts | 105° |
| 2026-05-07 17:30 | 7.66288 | -75.96303 | 36944 ft | 465 kts | 105° |
| 2026-05-07 17:30 | 7.64464 | -75.90039 | 36951 ft | 467 kts | 105° |
| 2026-05-07 17:31 | 7.62633 | -75.83751 | 36952 ft | 468 kts | 105° |
| 2026-05-07 17:31 | 7.60792 | -75.77435 | 36948 ft | 470 kts | 105° |
| 2026-05-07 17:32 | 7.58944 | -75.71100 | 36947 ft | 472 kts | 105° |
| 2026-05-07 17:32 | 7.57405 | -75.65827 | 36947 ft | 473 kts | 105° |
| 2026-05-07 17:33 | 7.55232 | -75.58385 | 36948 ft | 474 kts | 105° |
| 2026-05-07 17:33 | 7.53688 | -75.53096 | 36949 ft | 474 kts | 105° |
| 2026-05-07 17:34 | 7.51825 | -75.46721 | 36942 ft | 474 kts | 105° |
| 2026-05-07 17:34 | 7.49962 | -75.40351 | 36936 ft | 473 kts | 105° |
| 2026-05-07 17:35 | 7.48102 | -75.33997 | 36937 ft | 472 kts | 105° |
| 2026-05-07 17:35 | 7.46244 | -75.27650 | 36934 ft | 472 kts | 105° |
| 2026-05-07 17:36 | 7.44387 | -75.21310 | 36931 ft | 472 kts | 105° |
| 2026-05-07 17:36 | 7.42530 | -75.14974 | 36929 ft | 471 kts | 105° |
| 2026-05-07 17:37 | 7.40684 | -75.08683 | 36933 ft | 471 kts | 105° |
| 2026-05-07 17:37 | 7.38829 | -75.02360 | 36922 ft | 471 kts | 105° |
| 2026-05-07 17:38 | 7.36968 | -74.96019 | 36935 ft | 472 kts | 105° |
| 2026-05-07 17:38 | 7.35102 | -74.89670 | 36929 ft | 474 kts | 105° |
| 2026-05-07 17:39 | 7.33227 | -74.83290 | 36926 ft | 475 kts | 105° |
| 2026-05-07 17:39 | 7.31349 | -74.76907 | 36932 ft | 476 kts | 105° |
| 2026-05-07 17:40 | 7.29466 | -74.70507 | 36923 ft | 477 kts | 106° |
| 2026-05-07 17:40 | 7.27579 | -74.64099 | 36926 ft | 478 kts | 106° |
| 2026-05-07 17:41 | 7.25687 | -74.57675 | 36921 ft | 478 kts | 106° |
| 2026-05-07 17:41 | 7.23810 | -74.51310 | 36634 ft | 467 kts | 106° |
| 2026-05-07 17:42 | 7.22887 | -74.48180 | 36074 ft | 469 kts | 106° |
| 2026-05-07 17:42 | 7.21952 | -74.45011 | 35526 ft | 474 kts | 106° |
| 2026-05-07 17:42 | 7.21011 | -74.41818 | 35046 ft | 478 kts | 106° |
| 2026-05-07 17:42 | 7.20057 | -74.38587 | 34507 ft | 483 kts | 107° |
| 2026-05-07 17:43 | 7.19099 | -74.35342 | 33965 ft | 483 kts | 107° |
| 2026-05-07 17:43 | 7.18140 | -74.32095 | 33340 ft | 484 kts | 107° |
| 2026-05-07 17:43 | 7.17181 | -74.28849 | 32721 ft | 484 kts | 107° |
| 2026-05-07 17:43 | 7.16221 | -74.25600 | 32112 ft | 484 kts | 107° |
| 2026-05-07 17:44 | 7.15263 | -74.22359 | 31518 ft | 483 kts | 107° |
| 2026-05-07 17:44 | 7.14305 | -74.19119 | 30933 ft | 482 kts | 107° |
| 2026-05-07 17:44 | 7.13349 | -74.15884 | 30362 ft | 482 kts | 107° |
| 2026-05-07 17:44 | 7.12405 | -74.12694 | 29776 ft | 483 kts | 106° |
| 2026-05-07 17:45 | 7.11442 | -74.09439 | 29124 ft | 487 kts | 106° |
| 2026-05-07 17:45 | 7.10470 | -74.06156 | 28489 ft | 490 kts | 106° |
| 2026-05-07 17:45 | 7.09498 | -74.02872 | 27860 ft | 489 kts | 106° |
| 2026-05-07 17:45 | 7.08529 | -73.99598 | 27249 ft | 487 kts | 106° |
| 2026-05-07 17:46 | 7.07561 | -73.96331 | 26646 ft | 486 kts | 106° |
| 2026-05-07 17:46 | 7.06613 | -73.93130 | 26542 ft | 467 kts | 106° |
| 2026-05-07 17:46 | 7.05694 | -73.90033 | 26108 ft | 458 kts | 105° |
| 2026-05-07 17:46 | 7.04788 | -73.86972 | 25484 ft | 455 kts | 105° |
| 2026-05-07 17:47 | 7.03886 | -73.83929 | 24838 ft | 452 kts | 105° |
| 2026-05-07 17:47 | 7.02991 | -73.80906 | 24273 ft | 448 kts | 105° |
| 2026-05-07 17:47 | 7.02221 | -73.77888 | 23761 ft | 442 kts | 101° |
| 2026-05-07 17:47 | 7.01597 | -73.74882 | 23218 ft | 437 kts | 100° |
| 2026-05-07 17:48 | 7.01028 | -73.71891 | 22580 ft | 433 kts | 99° |
| 2026-05-07 17:48 | 7.00472 | -73.68931 | 21942 ft | 429 kts | 100° |
| 2026-05-07 17:48 | 6.99908 | -73.65994 | 21333 ft | 426 kts | 100° |
| 2026-05-07 17:48 | 6.99335 | -73.63077 | 20736 ft | 422 kts | 101° |
| 2026-05-07 17:49 | 6.98758 | -73.60196 | 20158 ft | 419 kts | 101° |
| 2026-05-07 17:49 | 6.98179 | -73.57338 | 19602 ft | 415 kts | 101° |
| 2026-05-07 17:49 | 6.97602 | -73.54501 | 19062 ft | 411 kts | 101° |
| 2026-05-07 17:49 | 6.97031 | -73.51695 | 18523 ft | 408 kts | 101° |
| 2026-05-07 17:50 | 6.96464 | -73.48910 | 17993 ft | 404 kts | 101° |
| 2026-05-07 17:50 | 6.95903 | -73.46156 | 17455 ft | 399 kts | 101° |
| 2026-05-07 17:50 | 6.95348 | -73.43431 | 16921 ft | 395 kts | 101° |
| 2026-05-07 17:50 | 6.94798 | -73.40731 | 16387 ft | 392 kts | 101° |
| 2026-05-07 17:51 | 6.94255 | -73.38060 | 15850 ft | 388 kts | 101° |
| 2026-05-07 17:51 | 6.93723 | -73.35449 | 15349 ft | 382 kts | 101° |
| 2026-05-07 17:51 | 6.93196 | -73.32865 | 14607 ft | 374 kts | 101° |
| 2026-05-07 17:51 | 6.92384 | -73.30403 | 13830 ft | 370 kts | 118° |
| 2026-05-07 17:52 | 6.90858 | -73.28414 | 13526 ft | 352 kts | 134° |
| 2026-05-07 17:52 | 6.88913 | -73.26894 | 12464 ft | 358 kts | 148° |
| 2026-05-07 17:52 | 6.86609 | -73.25958 | 11888 ft | 353 kts | 165° |
| 2026-05-07 17:52 | 6.84287 | -73.25475 | 11752 ft | 331 kts | 167° |
| 2026-05-07 17:53 | 6.82121 | -73.24850 | 11311 ft | 319 kts | 156° |
| 2026-05-07 17:53 | 6.80140 | -73.23869 | 10729 ft | 317 kts | 148° |
| 2026-05-07 17:53 | 6.78303 | -73.22647 | 10136 ft | 316 kts | 142° |
| 2026-05-07 17:53 | 6.76652 | -73.21210 | 9555 ft | 313 kts | 134° |
| 2026-05-07 17:54 | 6.75212 | -73.19586 | 8887 ft | 312 kts | 127° |
| 2026-05-07 17:54 | 6.73986 | -73.17786 | 8291 ft | 311 kts | 120° |
| 2026-05-07 17:54 | 6.72983 | -73.15856 | 8115 ft | 313 kts | 113° |
| 2026-05-07 17:54 | 6.72240 | -73.13801 | 8003 ft | 313 kts | 105° |
| 2026-05-07 17:55 | 6.71784 | -73.11665 | 7938 ft | 313 kts | 97° |
| 2026-05-07 17:55 | 6.71610 | -73.09501 | 7910 ft | 305 kts | 90° |
| 2026-05-07 17:55 | 6.71926 | -73.07442 | 7908 ft | 299 kts | 67° |
| 2026-05-07 17:55 | 6.73091 | -73.05755 | 7915 ft | 291 kts | 40° |
| 2026-05-07 17:56 | 6.74824 | -73.04889 | 7912 ft | 272 kts | 8° |
| 2026-05-07 17:56 | 6.76651 | -73.04997 | 7918 ft | 257 kts | 347° |
| 2026-05-07 17:56 | 6.78341 | -73.05504 | 7913 ft | 252 kts | 340° |
| 2026-05-07 17:56 | 6.79984 | -73.06120 | 7928 ft | 254 kts | 339° |
| 2026-05-07 17:57 | 6.81643 | -73.06760 | 7935 ft | 256 kts | 339° |
| 2026-05-07 17:57 | 6.82752 | -73.07185 | 7939 ft | 257 kts | 339° |
| 2026-05-07 17:57 | 6.84976 | -73.08028 | 7950 ft | 259 kts | 340° |
| 2026-05-07 17:57 | 6.86666 | -73.08666 | 7950 ft | 259 kts | 340° |
| 2026-05-07 17:58 | 6.88358 | -73.09304 | 7949 ft | 261 kts | 340° |
| 2026-05-07 17:58 | 6.90045 | -73.09942 | 7960 ft | 258 kts | 340° |
| 2026-05-07 17:58 | 6.91713 | -73.10572 | 7948 ft | 254 kts | 340° |
| 2026-05-07 17:58 | 6.93375 | -73.11199 | 7640 ft | 254 kts | 339° |
| 2026-05-07 17:59 | 6.94982 | -73.11807 | 7345 ft | 238 kts | 339° |
| 2026-05-07 17:59 | 6.96470 | -73.12368 | 7048 ft | 220 kts | 339° |
| 2026-05-07 17:59 | 6.97854 | -73.12891 | 6781 ft | 204 kts | 339° |
| 2026-05-07 17:59 | 6.99138 | -73.13376 | 6523 ft | 189 kts | 339° |
| 2026-05-07 18:00 | 7.00307 | -73.13818 | 6261 ft | 174 kts | 339° |
| 2026-05-07 18:00 | 7.01400 | -73.14230 | 6035 ft | 164 kts | 339° |
| 2026-05-07 18:00 | 7.02456 | -73.14629 | 5840 ft | 160 kts | 339° |
| 2026-05-07 18:00 | 7.03488 | -73.15018 | 5626 ft | 158 kts | 339° |
| 2026-05-07 18:01 | 7.04524 | -73.15410 | 5423 ft | 161 kts | 339° |
| 2026-05-07 18:01 | 7.05564 | -73.15803 | 5221 ft | 159 kts | 339° |
| 2026-05-07 18:01 | 7.06606 | -73.16197 | 5003 ft | 160 kts | 339° |
| 2026-05-07 18:01 | 7.07651 | -73.16591 | 4785 ft | 160 kts | 339° |
| 2026-05-07 18:02 | 7.09715 | -73.17407 | 4369 ft | 160 kts | 339° |
| 2026-05-07 18:02 | 7.10764 | -73.17778 | 4123 ft | 161 kts | 339° |
| 2026-05-07 18:02 | 7.11814 | -73.18164 | 3892 ft | 161 kts | 339° |
| 2026-05-07 18:03 | 7.12778 | -73.18527 | 3906 ft | 132 kts | 339° |
| 2026-05-07 18:03 | 7.13267 | -73.18709 | 3916 ft | 43 kts | 339° |
| 2026-05-07 18:03 | 7.13478 | -73.18789 | 3917 ft | 18 kts | 339° |
| 2026-05-07 18:03 | 7.13580 | -73.18854 | 3915 ft | 17 kts | 322° |
| 2026-05-07 18:04 | 7.13634 | -73.18852 | 3914 ft | 2 kts | 76° |
| 2026-05-07 18:04 | 7.13630 | -73.18843 | 3914 ft | 2 kts | 119° |
| 2026-05-07 18:04 | 7.13597 | -73.18823 | 3915 ft | 11 kts | 160° |
| 2026-05-07 18:04 | 7.13510 | -73.18795 | 3917 ft | 13 kts | 162° |
| 2026-05-07 18:05 | 7.13380 | -73.18751 | 3916 ft | 27 kts | 160° |
| 2026-05-07 18:05 | 7.13214 | -73.18673 | 3917 ft | 26 kts | 133° |
| 2026-05-07 18:05 | 7.13108 | -73.18541 | 3914 ft | 24 kts | 153° |
| 2026-05-07 18:05 | 7.12980 | -73.18495 | 3911 ft | 15 kts | 158° |
| 2026-05-07 18:06 | 7.12887 | -73.18461 | 3908 ft | 14 kts | 161° |
| 2026-05-07 18:06 | 7.12874 | -73.18456 | 3909 ft | 4 kts | 160° |
| 2026-05-07 18:06 | 7.12813 | -73.18432 | 3904 ft | 10 kts | 156° |
| 2026-05-07 18:06 | 7.12770 | -73.18413 | 3905 ft | 6 kts | 158° |
| 2026-05-07 18:07 | 7.12727 | -73.18391 | 3903 ft | 7 kts | 160° |
| 2026-05-07 18:07 | 7.12687 | -73.18359 | 3899 ft | 8 kts | 114° |
| 2026-05-07 18:07 | 7.12681 | -73.18303 | 3901 ft | 9 kts | 75° |
| 2026-05-07 18:07 | 7.12682 | -73.18256 | 3897 ft | 3 kts | 94° |
| 2026-05-07 18:08 | 7.12692 | -73.18241 | 3898 ft | 3 kts | 36° |
| 2026-05-07 18:08 | 7.12711 | -73.18233 | 3899 ft | 3 kts | 15° |
| 2026-05-07 18:08 | 7.12728 | -73.18229 | 3899 ft | 1 kts | 13° |
| 2026-05-07 18:08 | 7.12730 | -73.18229 | 3899 ft | 0 kts | 12° |
| 2026-05-07 18:25 | 7.02432 | -73.14620 | 5826 ft | 161 kts | 339° |
| 2026-05-07 18:25 | 7.03462 | -73.15009 | 5616 ft | 158 kts | 339° |
| 2026-05-07 18:25 | 7.04500 | -73.15401 | 5413 ft | 161 kts | 339° |
| 2026-05-07 18:25 | 7.05541 | -73.15794 | 5207 ft | 159 kts | 339° |
| 2026-05-07 18:26 | 7.06583 | -73.16188 | 4997 ft | 160 kts | 339° |
| 2026-05-07 18:26 | 7.07625 | -73.16582 | 4781 ft | 160 kts | 339° |
| 2026-05-07 18:26 | 7.08664 | -73.16980 | 4569 ft | 159 kts | 337° |
| 2026-05-07 18:26 | 7.09689 | -73.17398 | 4367 ft | 160 kts | 339° |
| 2026-05-07 18:27 | 7.10738 | -73.17768 | 4126 ft | 161 kts | 339° |
| 2026-05-07 18:27 | 7.11787 | -73.18154 | 3897 ft | 161 kts | 339° |
| 2026-05-07 18:27 | 7.12759 | -73.18519 | 3903 ft | 133 kts | 339° |
| 2026-05-07 18:27 | 7.13149 | -73.18665 | 3917 ft | 57 kts | 340° |
| 2026-05-07 18:28 | 7.13475 | -73.18788 | 3917 ft | 18 kts | 339° |
| 2026-05-07 18:28 | 7.13578 | -73.18852 | 3915 ft | 17 kts | 321° |
| 2026-05-07 18:28 | 7.13634 | -73.18853 | 3914 ft | 2 kts | 73° |
| 2026-05-07 18:28 | 7.13630 | -73.18843 | 3914 ft | 2 kts | 117° |
| 2026-05-07 18:29 | 7.13598 | -73.18824 | 3915 ft | 10 kts | 158° |
| 2026-05-07 18:29 | 7.13511 | -73.18796 | 3917 ft | 13 kts | 162° |
| 2026-05-07 18:29 | 7.13382 | -73.18752 | 3916 ft | 27 kts | 160° |
| 2026-05-07 18:29 | 7.13215 | -73.18675 | 3917 ft | 26 kts | 134° |
| 2026-05-07 18:30 | 7.13110 | -73.18542 | 3915 ft | 24 kts | 153° |
| 2026-05-07 18:30 | 7.12981 | -73.18496 | 3911 ft | 15 kts | 158° |
| 2026-05-07 18:30 | 7.12888 | -73.18461 | 3908 ft | 14 kts | 161° |
| 2026-05-07 18:30 | 7.10049 | -73.17528 | 4296 ft | 159 kts | 340° |
| 2026-05-07 18:31 | 7.11100 | -73.17896 | 4053 ft | 160 kts | 340° |
| 2026-05-07 18:31 | 7.12143 | -73.18290 | 3881 ft | 154 kts | 339° |
| 2026-05-07 18:31 | 7.13013 | -73.18615 | 3914 ft | 82 kts | 340° |
| 2026-05-07 18:31 | 7.09888 | -73.17472 | 4329 ft | 160 kts | 340° |
| 2026-05-07 18:32 | 7.10941 | -73.17840 | 4092 ft | 161 kts | 340° |
| 2026-05-07 18:32 | 7.11987 | -73.18230 | 3876 ft | 158 kts | 339° |
| 2026-05-07 18:32 | 7.12916 | -73.18579 | 3911 ft | 113 kts | 339° |
| 2026-05-07 18:32 | 7.13310 | -73.18725 | 3916 ft | 37 kts | 339° |
| 2026-05-07 18:33 | 7.13498 | -73.18797 | 3917 ft | 18 kts | 339° |
| 2026-05-07 18:33 | 7.10815 | -73.17795 | 4109 ft | 149 kts | 340° |
| 2026-05-07 18:33 | 7.11007 | -73.17863 | 4079 ft | 161 kts | 340° |
| 2026-05-07 18:33 | 7.12049 | -73.18254 | 3879 ft | 157 kts | 339° |
| 2026-05-07 18:34 | 7.12959 | -73.18595 | 3912 ft | 101 kts | 340° |
| 2026-05-07 18:34 | 7.13325 | -73.18731 | 3916 ft | 36 kts | 339° |
| 2026-05-07 18:34 | 7.13505 | -73.18799 | 3917 ft | 18 kts | 339° |
| 2026-05-07 18:34 | 7.12730 | -73.18229 | 3896 ft | 0 kts | 12° |